Home   Weather   Carrizo Springs   Past weeks
Flag for USA

Past Weather in Carrizo Springs, Texas, USA — Yesterday and Last 2 Weeks

Currently: 77 °F. Scattered clouds. (Weather station: Garner Field Airport, USA). See more current weather

Past Weather in Carrizo Springs — Graph

°F

Carrizo Springs Temperature Yesterday

Maximum temperature yesterday: 75 °F (at 4:55 pm)
Minimum temperature yesterday: 59 °F (at 2:35 am)
Average temperature yesterday: 65 °F

High & Low Weather Summary for the Past Weeks

 TemperatureHumidityPressure
High90 °F (Feb 26, 4:55 pm)100% (Feb 20, 4:55 am)30.39 "Hg (Feb 20, 4:55 am)
Low33 °F (Feb 19, 7:15 am)12% (Feb 22, 4:15 pm)29.72 "Hg (Feb 27, 3:35 pm)
Average62 °F62%30.06 "Hg
* Reported Feb 18 2:35 pm — Mar 4 2:55 pm, Carrizo Springs. Weather by CustomWeather, © 2024

Note: Actual official high and low records may vary slightly from our data, if they occured in-between our weather recording intervals... More about our weather records

Carrizo Springs Weather History for the Previous 24 Hours

Scroll right to see more
 ConditionsComfort  
Time TempWeatherWind HumidityBarometerVisibility
2:55 pm
Mon, Mar 4
77 °FBroken clouds.9 mph63%29.83 "HgN/A
1:55 pm77 °FMostly cloudy.6 mph60%29.85 "HgN/A
12:55 pm78 °FPartly sunny.3 mph60%29.87 "HgN/A
12:35 pm78 °FPartly sunny.6 mph60%29.87 "HgN/A
11:55 am76 °FPartly sunny.10 mph65%29.89 "HgN/A
10:55 am75 °FPartly sunny.7 mph75%29.91 "HgN/A
10:35 am73 °FOvercast.6 mph84%29.91 "HgN/A
10:15 am73 °FOvercast.8 mph85%29.91 "HgN/A
9:55 am71 °FMild.6 mph95%29.90 "HgN/A
9:35 am70 °FMostly cloudy.5 mph100%29.91 "HgN/A
9:15 am69 °FMostly cloudy.7 mph100%29.90 "HgN/A
8:55 am68 °FLow clouds.6 mph100%29.91 "HgN/A
8:35 am67 °FMostly cloudy.5 mph100%29.91 "HgN/A
7:55 am66 °FMild.No wind100%29.90 "HgN/A
7:35 am66 °FMild.3 mph100%29.90 "HgN/A
7:15 am66 °FMostly cloudy.5 mph100%29.89 "HgN/A
6:55 am66 °FLow clouds.5 mph100%29.89 "HgN/A
6:35 am66 °FLow clouds.7 mph100%29.89 "HgN/A
5:55 am66 °FLow clouds.5 mph100%29.88 "HgN/A
5:35 am66 °FLow clouds.6 mph100%29.88 "HgN/A
5:15 am66 °FLow clouds.7 mph100%29.88 "HgN/A
4:55 am66 °FLow clouds.8 mph100%29.87 "HgN/A
4:35 am66 °FLow clouds.9 mph100%29.86 "HgN/A
4:15 am66 °FLow clouds.10 mph100%29.86 "HgN/A
3:55 am66 °FLow clouds.7 mph100%29.86 "HgN/A
3:35 am66 °FLow clouds.9 mph100%29.86 "HgN/A
3:15 am66 °FLow clouds.9 mph100%29.87 "HgN/A
2:55 am66 °FLow clouds.7 mph100%29.87 "HgN/A
2:35 am66 °FLow clouds.5 mph100%29.87 "HgN/A
1:55 am67 °FLow clouds.6 mph100%29.88 "HgN/A
1:35 am67 °FLow clouds.8 mph100%29.88 "HgN/A
1:15 am67 °FLow clouds.7 mph100%29.88 "HgN/A
12:55 am66 °FMostly cloudy.7 mph100%29.88 "HgN/A
12:35 am65 °FMild.6 mph100%29.88 "HgN/A
12:15 am65 °FMild.6 mph100%29.89 "HgN/A
11:55 pm
Sun, Mar 3
65 °FMild.6 mph100%29.89 "HgN/A
11:35 pm64 °FMild.7 mph100%29.89 "HgN/A
10:55 pm62 °FCool.5 mph100%29.90 "HgN/A
10:35 pm63 °FMild.3 mph100%29.90 "HgN/A
10:15 pm63 °FMild.3 mph100%29.90 "HgN/A
9:55 pm63 °FMild.5 mph100%29.90 "HgN/A
9:35 pm64 °FMild.3 mph100%29.90 "HgN/A
8:35 pm67 °FMild.8 mph90%29.88 "HgN/A
8:15 pm67 °FOvercast.5 mph92%29.88 "HgN/A
7:55 pm67 °FPassing clouds.6 mph92%29.86 "HgN/A
7:15 pm67 °FMild.6 mph87%29.86 "HgN/A
6:55 pm71 °FClear.3 mph78%29.85 "HgN/A
6:35 pm72 °FSunny.3 mph73%29.85 "HgN/A
6:15 pm73 °FScattered clouds.6 mph70%29.85 "HgN/A
5:55 pm73 °FPartly sunny.6 mph69%29.84 "HgN/A
5:35 pm73 °FScattered clouds.8 mph70%29.84 "HgN/A
4:55 pm75 °FScattered clouds.8 mph62%29.84 "HgN/A
4:35 pm74 °FPartly sunny.8 mph65%29.85 "HgN/A
4:15 pm74 °FPartly sunny.No wind64%29.86 "HgN/A
Weather by CustomWeather, © 2024

See weather overview